Time;durP1;ratioP1;P1;durP2;ratioP2;P2;SDS_P1;SDS_P2;PMS_P1;PMS_P2;Temp;Humidity;BMP_temperature;BMP_pressure;BME280_temperature;BME280_humidity;BME280_pressure;Samples;Min_cycle;Max_cycle;Signal;HPM_P1;HPM_P2
2021/12/02 00:01:04;;;;;;;2.88;0.73;;;;;;;;;;4909141;29;20052;-68
2021/12/02 00:03:30;;;;;;;11.20;0.73;;;;;;;;;;4909149;29;20127;-69
2021/12/02 00:05:56;;;;;;;4.97;0.60;;;;;;;;;;4909095;29;20060;-68
2021/12/02 00:08:22;;;;;;;6.43;0.63;;;;;;;;;;4892510;29;20044;-68
2021/12/02 00:10:48;;;;;;;6.05;0.55;;;;;;;;;;4912683;29;20461;-68
2021/12/02 00:13:15;;;;;;;5.65;0.68;;;;;;;;;;4894366;29;20095;-69
2021/12/02 00:15:52;;;;;;;3.20;0.85;;;;;;;;;;4913039;29;20099;-68
2021/12/02 00:18:31;;;;;;;3.63;0.50;;;;;;;;;;4911192;29;20048;-68
2021/12/02 00:21:04;;;;;;;;;;;;;;;;;;4913157;29;20048;-68
2021/12/02 00:23:32;;;;;;;8.50;0.90;;;;;;;;;;4912785;29;20444;-68
2021/12/02 00:25:59;;;;;;;5.78;0.55;;;;;;;;;;4912531;29;20122;-68
2021/12/02 00:28:26;;;;;;;10.55;0.52;;;;;;;;;;4909539;29;20048;-68
2021/12/02 00:30:54;;;;;;;2.38;0.28;;;;;;;;;;4912226;29;20048;-68
2021/12/02 00:33:22;;;;;;;3.58;0.55;;;;;;;;;;4912942;29;20517;-68
2021/12/02 00:35:48;;;;;;;5.45;0.98;;;;;;;;;;4911645;29;20516;-68
2021/12/02 00:38:14;;;;;;;4.88;0.40;;;;;;;;;;4912720;29;20402;-68
2021/12/02 00:40:41;;;;;;;4.95;1.08;;;;;;;;;;4912218;29;20408;-68
2021/12/02 00:43:07;;;;;;;6.03;0.40;;;;;;;;;;4910854;29;20767;-69
2021/12/02 00:45:34;;;;;;;5.13;0.57;;;;;;;;;;4912540;29;20099;-69
2021/12/02 00:48:00;;;;;;;6.15;0.40;;;;;;;;;;4912203;29;20047;-69
2021/12/02 00:50:27;;;;;;;8.10;0.73;;;;;;;;;;4912403;29;20051;-70
2021/12/02 00:52:54;;;;;;;5.13;0.60;;;;;;;;;;4911570;29;20048;-70
2021/12/02 00:55:21;;;;;;;6.85;0.40;;;;;;;;;;4912793;29;20463;-68
2021/12/02 00:57:47;;;;;;;4.32;0.22;;;;;;;;;;4911904;29;20067;-68
2021/12/02 01:00:14;;;;;;;7.97;0.35;;;;;;;;;;4911846;29;20055;-68
2021/12/02 01:02:41;;;;;;;4.28;0.77;;;;;;;;;;4912192;29;20040;-68
2021/12/02 01:05:08;;;;;;;6.65;0.45;;;;;;;;;;4911537;29;20051;-69
2021/12/02 01:07:34;;;;;;;7.43;1.45;;;;;;;;;;4912151;29;20050;-68
2021/12/02 01:10:00;;;;;;;9.90;0.70;;;;;;;;;;4911799;29;20561;-68
2021/12/02 01:12:27;;;;;;;5.32;0.65;;;;;;;;;;4911184;29;20052;-68
2021/12/02 01:14:53;;;;;;;3.30;0.22;;;;;;;;;;4903274;29;20048;-69
2021/12/02 01:17:19;;;;;;;5.65;0.40;;;;;;;;;;4912185;29;20509;-68
2021/12/02 01:19:45;;;;;;;5.25;0.57;;;;;;;;;;4911403;29;20048;-68
2021/12/02 01:22:13;;;;;;;3.58;0.40;;;;;;;;;;4911667;29;20052;-68
2021/12/02 01:24:40;;;;;;;4.15;0.20;;;;;;;;;;4912080;29;20076;-68
2021/12/02 01:27:07;;;;;;;9.15;0.80;;;;;;;;;;4908999;29;20131;-68
2021/12/02 01:29:34;;;;;;;5.43;1.17;;;;;;;;;;4911892;29;20036;-68
2021/12/02 01:32:06;;;;;;;2.60;0.28;;;;;;;;;;4911471;29;20579;-68
2021/12/02 01:34:32;;;;;;;3.55;0.40;;;;;;;;;;4911471;29;20087;-69
2021/12/02 01:36:58;;;;;;;1.65;0.30;;;;;;;;;;4911192;29;20482;-68
2021/12/02 01:39:25;;;;;;;1.35;0.20;;;;;;;;;;4926130;29;20048;-68
2021/12/02 01:41:54;;;;;;;4.25;0.30;;;;;;;;;;4924576;29;20133;-68
2021/12/02 01:44:21;;;;;;;4.05;0.45;;;;;;;;;;4911485;29;20135;-69
2021/12/02 01:46:48;;;;;;;3.58;0.55;;;;;;;;;;4910824;29;20494;-68
2021/12/02 01:49:15;;;;;;;1.02;0.22;;;;;;;;;;4911049;29;20040;-68
2021/12/02 01:51:43;;;;;;;2.28;0.30;;;;;;;;;;4911475;29;20351;-69
2021/12/02 01:54:11;;;;;;;5.28;0.30;;;;;;;;;;4925655;29;20055;-69
2021/12/02 01:56:41;;;;;;;8.45;0.68;;;;;;;;;;4910595;29;20046;-69
2021/12/02 01:59:15;;;;;;;6.20;0.40;;;;;;;;;;4909833;29;20051;-68
2021/12/02 02:01:42;;;;;;;1.58;0.50;;;;;;;;;;4911119;29;20131;-69
2021/12/02 02:04:09;;;;;;;3.80;0.40;;;;;;;;;;4925475;29;20139;-69
2021/12/02 02:06:40;;;;;;;1.73;0.20;;;;;;;;;;4910083;29;20063;-68
2021/12/02 02:09:07;;;;;;;2.20;0.25;;;;;;;;;;4907948;29;20161;-68
2021/12/02 02:11:34;;;;;;;2.38;0.38;;;;;;;;;;4909718;29;20079;-69
2021/12/02 02:14:01;;;;;;;3.97;0.20;;;;;;;;;;4910070;29;20498;-68
2021/12/02 02:16:28;;;;;;;3.35;0.95;;;;;;;;;;4911014;29;20048;-68
2021/12/02 02:18:54;;;;;;;3.03;0.30;;;;;;;;;;4910611;29;20055;-69
2021/12/02 02:21:23;;;;;;;0.80;0.20;;;;;;;;;;4910926;29;20062;-68
2021/12/02 02:23:52;;;;;;;2.90;0.20;;;;;;;;;;4894053;29;20066;-68
2021/12/02 02:26:24;;;;;;;1.75;0.20;;;;;;;;;;4910233;29;20055;-68
2021/12/02 02:28:50;;;;;;;3.65;0.30;;;;;;;;;;4910852;29;20050;-68
2021/12/02 02:31:17;;;;;;;2.10;0.35;;;;;;;;;;4910904;29;20066;-68
2021/12/02 02:33:48;;;;;;;1.58;0.20;;;;;;;;;;4910202;29;20095;-68
2021/12/02 02:36:14;;;;;;;3.85;0.28;;;;;;;;;;4894005;29;20102;-68
2021/12/02 02:38:40;;;;;;;3.55;0.28;;;;;;;;;;4910229;29;20127;-68
2021/12/02 02:41:09;;;;;;;1.00;0.10;;;;;;;;;;4909458;29;20052;-68
2021/12/02 02:43:35;;;;;;;;;;;;;;;;;;4911184;29;20123;-68
2021/12/02 02:46:01;;;;;;;1.67;0.20;;;;;;;;;;4892946;29;19927;-68
2021/12/02 02:48:29;;;;;;;3.72;0.20;;;;;;;;;;4910033;29;20079;-68
2021/12/02 02:50:55;;;;;;;1.70;0.20;;;;;;;;;;4910210;29;20044;-68
2021/12/02 02:53:24;;;;;;;2.83;0.25;;;;;;;;;;4910435;29;20497;-68
2021/12/02 02:56:05;;;;;;;0.47;0.10;;;;;;;;;;4910232;29;20118;-68
2021/12/02 03:01:37;;;;;;;2.67;0.20;;;;;;;;;;4907037;29;20845;-68
2021/12/02 03:06:55;;;;;;;0.90;0.10;;;;;;;;;;4910619;29;20414;-68
2021/12/02 03:09:36;;;;;;;5.07;0.20;;;;;;;;;;4909571;29;20056;-69
2021/12/02 03:12:12;;;;;;;1.77;0.30;;;;;;;;;;4908893;29;20048;-68
2021/12/02 03:17:09;;;;;;;2.05;0.50;;;;;;;;;;4909306;29;20572;-68
2021/12/02 03:19:40;;;;;;;1.93;0.20;;;;;;;;;;4909963;29;20482;-68
2021/12/02 03:22:06;;;;;;;2.40;0.20;;;;;;;;;;4909395;29;20300;-68
2021/12/02 03:24:32;;;;;;;1.73;0.10;;;;;;;;;;4909819;29;20044;-68
2021/12/02 03:26:58;;;;;;;1.17;0.38;;;;;;;;;;4908293;29;20040;-68
2021/12/02 03:29:24;;;;;;;2.75;0.20;;;;;;;;;;4909772;29;20592;-68
2021/12/02 03:31:51;;;;;;;0.70;0.10;;;;;;;;;;4909639;29;20044;-68
2021/12/02 03:34:17;;;;;;;0.50;0.20;;;;;;;;;;4910216;29;20463;-69
2021/12/02 03:36:44;;;;;;;1.13;0.20;;;;;;;;;;4909826;29;20501;-71
2021/12/02 03:39:13;;;;;;;2.67;0.20;;;;;;;;;;4909050;29;20131;-68
2021/12/02 03:41:40;;;;;;;2.65;0.28;;;;;;;;;;4908491;29;20047;-68
2021/12/02 03:44:07;;;;;;;2.60;0.20;;;;;;;;;;4909433;29;20047;-69
2021/12/02 03:46:33;;;;;;;1.58;0.30;;;;;;;;;;4909652;29;20052;-69
2021/12/02 03:49:00;;;;;;;1.70;0.20;;;;;;;;;;4907510;29;20037;-69
2021/12/02 03:51:26;;;;;;;1.42;0.15;;;;;;;;;;4909293;29;20108;-69
2021/12/02 03:53:53;;;;;;;3.15;1.15;;;;;;;;;;4909223;29;20425;-69
2021/12/02 03:56:20;;;;;;;2.72;0.30;;;;;;;;;;4909221;29;20052;-70
2021/12/02 03:58:47;;;;;;;3.97;0.20;;;;;;;;;;4892470;29;20505;-69
2021/12/02 04:01:14;;;;;;;3.30;0.35;;;;;;;;;;4908801;29;20094;-69
2021/12/02 04:03:40;;;;;;;4.10;0.30;;;;;;;;;;4909479;29;20051;-69
2021/12/02 04:06:07;;;;;;;4.53;0.17;;;;;;;;;;4908492;29;20086;-69
2021/12/02 04:13:45;;;;;;;5.90;0.60;;;;;;;;;;4908767;29;20391;-69
2021/12/02 04:16:16;;;;;;;1.30;0.20;;;;;;;;;;4907481;29;20070;-69
2021/12/02 04:18:42;;;;;;;0.98;0.22;;;;;;;;;;4891894;29;20040;-69
2021/12/02 04:21:09;;;;;;;1.35;0.10;;;;;;;;;;4909012;29;20508;-69
2021/12/02 04:23:35;;;;;;;3.42;0.57;;;;;;;;;;4908968;29;20044;-69
2021/12/02 04:26:01;;;;;;;3.28;0.40;;;;;;;;;;4908084;29;20140;-70
2021/12/02 04:28:27;;;;;;;0.68;0.10;;;;;;;;;;4909259;29;20047;-69
2021/12/02 04:30:53;;;;;;;2.67;0.20;;;;;;;;;;4908596;29;20074;-69
2021/12/02 04:33:19;;;;;;;1.15;0.68;;;;;;;;;;4909161;29;20095;-69
2021/12/02 04:35:45;;;;;;;2.70;0.30;;;;;;;;;;4908943;29;20060;-69
2021/12/02 04:38:12;;;;;;;2.65;0.20;;;;;;;;;;4909183;29;20040;-68
2021/12/02 04:40:41;;;;;;;2.28;0.13;;;;;;;;;;4908215;29;20044;-69
2021/12/02 04:43:07;;;;;;;0.73;0.17;;;;;;;;;;4908801;29;20091;-69
2021/12/02 04:45:33;;;;;;;1.08;0.30;;;;;;;;;;4908928;29;20529;-69
2021/12/02 04:48:00;;;;;;;0.93;0.20;;;;;;;;;;4908680;29;20048;-68
2021/12/02 04:50:26;;;;;;;2.63;0.13;;;;;;;;;;4909102;29;20059;-69
2021/12/02 04:52:53;;;;;;;2.67;0.20;;;;;;;;;;4908292;29;20091;-69
2021/12/02 04:55:20;;;;;;;4.85;0.25;;;;;;;;;;4910197;29;20123;-68
2021/12/02 04:57:46;;;;;;;0.52;0.10;;;;;;;;;;4911412;29;20380;-68
2021/12/02 05:00:13;;;;;;;0.77;0.10;;;;;;;;;;4912120;29;20048;-68
2021/12/02 05:02:40;;;;;;;0.98;0.20;;;;;;;;;;4911652;29;20146;-68
2021/12/02 05:05:07;;;;;;;2.15;0.20;;;;;;;;;;4911635;29;20052;-69
2021/12/02 05:07:34;;;;;;;6.15;0.50;;;;;;;;;;4912194;29;20040;-69
2021/12/02 05:10:00;;;;;;;4.63;0.28;;;;;;;;;;4911675;29;20466;-69
2021/12/02 05:12:26;;;;;;;1.67;0.10;;;;;;;;;;4910753;29;20455;-69
2021/12/02 05:14:52;;;;;;;1.08;0.17;;;;;;;;;;4911383;29;20134;-69
2021/12/02 05:17:19;;;;;;;1.15;0.20;;;;;;;;;;4912101;29;20498;-69
2021/12/02 05:19:46;;;;;;;0.20;0.10;;;;;;;;;;4912039;29;20271;-69
2021/12/02 05:22:12;;;;;;;1.50;0.30;;;;;;;;;;4911685;29;20534;-68
2021/12/02 05:24:38;;;;;;;2.38;0.30;;;;;;;;;;4911955;29;20454;-69
2021/12/02 05:27:04;;;;;;;1.95;0.10;;;;;;;;;;4910377;29;20143;-68
2021/12/02 05:29:31;;;;;;;2.17;0.20;;;;;;;;;;4911538;29;20051;-69
2021/12/02 05:31:57;;;;;;;1.73;0.10;;;;;;;;;;4911291;29;20080;-68
2021/12/02 05:34:24;;;;;;;3.35;0.20;;;;;;;;;;4912082;29;20071;-69
2021/12/02 05:36:50;;;;;;;1.55;0.20;;;;;;;;;;4911409;29;20135;-69
2021/12/02 05:39:16;;;;;;;2.92;0.43;;;;;;;;;;4911934;29;20135;-69
2021/12/02 05:41:43;;;;;;;1.02;0.10;;;;;;;;;;4910747;29;20044;-68
2021/12/02 05:44:09;;;;;;;0.15;0.00;;;;;;;;;;4911612;29;20103;-68
2021/12/02 05:46:36;;;;;;;3.72;0.10;;;;;;;;;;4911144;29;20079;-68
2021/12/02 05:49:02;;;;;;;3.05;0.30;;;;;;;;;;4911039;29;20059;-68
2021/12/02 05:51:28;;;;;;;1.92;0.20;;;;;;;;;;4911426;29;20402;-68
2021/12/02 05:53:54;;;;;;;4.30;0.28;;;;;;;;;;4911269;29;20048;-68
2021/12/02 05:56:20;;;;;;;2.92;0.20;;;;;;;;;;4893581;29;20047;-68
2021/12/02 05:58:46;;;;;;;0.85;0.17;;;;;;;;;;4911565;29;20099;-69
2021/12/02 06:01:13;;;;;;;2.05;0.10;;;;;;;;;;4893669;29;20143;-74
2021/12/02 06:03:40;;;;;;;1.50;0.10;;;;;;;;;;4911498;29;20083;-75
2021/12/02 06:06:06;;;;;;;5.32;0.20;;;;;;;;;;4910283;29;20091;-77
2021/12/02 06:08:33;;;;;;;3.30;0.10;;;;;;;;;;4911325;29;20051;-79
2021/12/02 06:10:59;;;;;;;2.58;0.20;;;;;;;;;;4907963;29;20070;-73
2021/12/02 06:13:26;;;;;;;0.90;0.13;;;;;;;;;;4910674;29;20044;-72
2021/12/02 06:15:52;;;;;;;2.78;0.10;;;;;;;;;;4910290;29;20048;-70
2021/12/02 06:18:19;;;;;;;0.93;0.10;;;;;;;;;;4893646;29;20056;-69
2021/12/02 06:20:51;;;;;;;0.98;0.13;;;;;;;;;;4910521;29;20100;-69
2021/12/02 06:23:17;;;;;;;0.22;0.10;;;;;;;;;;4911598;29;20502;-68
2021/12/02 06:25:44;;;;;;;1.38;0.20;;;;;;;;;;4910529;29;20044;-68
2021/12/02 06:28:10;;;;;;;0.82;0.20;;;;;;;;;;4910911;29;20043;-68
2021/12/02 06:30:36;;;;;;;2.80;0.50;;;;;;;;;;4911550;29;20047;-68
2021/12/02 06:33:03;;;;;;;1.20;0.10;;;;;;;;;;4911149;29;20123;-68
2021/12/02 06:35:29;;;;;;;0.90;0.22;;;;;;;;;;4911510;29;20055;-67
2021/12/02 06:37:55;;;;;;;1.45;0.20;;;;;;;;;;4910861;29;20044;-68
2021/12/02 06:40:21;;;;;;;2.80;0.40;;;;;;;;;;4910185;29;20048;-68
2021/12/02 06:42:48;;;;;;;1.75;0.25;;;;;;;;;;4910507;29;20512;-67
2021/12/02 06:45:14;;;;;;;3.60;0.20;;;;;;;;;;4908599;29;20466;-67
2021/12/02 06:47:41;;;;;;;0.85;0.22;;;;;;;;;;4908264;29;20081;-67
2021/12/02 06:50:09;;;;;;;5.03;0.50;;;;;;;;;;4909857;29;20051;-68
2021/12/02 06:52:36;;;;;;;2.30;0.40;;;;;;;;;;4910876;29;20421;-67
2021/12/02 06:55:03;;;;;;;2.28;0.50;;;;;;;;;;4910170;29;20126;-67
2021/12/02 06:57:30;;;;;;;0.60;0.30;;;;;;;;;;4909612;29;20107;-68
2021/12/02 06:59:56;;;;;;;2.83;0.30;;;;;;;;;;4910009;29;20443;-68
2021/12/02 07:02:24;;;;;;;0.73;0.30;;;;;;;;;;4892991;29;20048;-68
2021/12/02 07:04:51;;;;;;;3.85;0.50;;;;;;;;;;4909784;29;20111;-67
2021/12/02 07:07:17;;;;;;;3.90;0.35;;;;;;;;;;4910183;29;20391;-67
2021/12/02 07:09:44;;;;;;;4.10;0.50;;;;;;;;;;4908836;29;20076;-67
2021/12/02 07:12:10;;;;;;;1.95;0.10;;;;;;;;;;4907966;29;20043;-67
2021/12/02 07:14:36;;;;;;;2.50;0.40;;;;;;;;;;4909600;29;20059;-67
2021/12/02 07:17:03;;;;;;;1.80;0.15;;;;;;;;;;4909035;29;20062;-66
2021/12/02 07:19:29;;;;;;;5.57;0.95;;;;;;;;;;4909184;29;20123;-67
2021/12/02 07:21:55;;;;;;;1.55;0.20;;;;;;;;;;4892495;29;20100;-67
2021/12/02 07:24:23;;;;;;;6.75;0.88;;;;;;;;;;4909369;29;20056;-68
2021/12/02 07:26:49;;;;;;;3.30;0.30;;;;;;;;;;4909116;29;20123;-67
2021/12/02 07:29:16;;;;;;;6.13;0.82;;;;;;;;;;4908977;29;20044;-67
2021/12/02 07:31:42;;;;;;;1.70;0.20;;;;;;;;;;4909545;29;20119;-67
2021/12/02 07:34:09;;;;;;;0.60;0.10;;;;;;;;;;4909202;29;20099;-67
2021/12/02 07:36:35;;;;;;;0.70;0.30;;;;;;;;;;4909113;29;20075;-67
2021/12/02 07:39:04;;;;;;;3.70;0.73;;;;;;;;;;4908420;29;20050;-67
2021/12/02 07:41:30;;;;;;;;;;;;;;;;;;4909115;29;20044;-67
2021/12/02 07:43:57;;;;;;;4.32;0.30;;;;;;;;;;4909312;29;21611;-67
2021/12/02 07:46:23;;;;;;;0.30;0.20;;;;;;;;;;4909139;29;20063;-68
2021/12/02 07:48:49;;;;;;;0.30;0.20;;;;;;;;;;4909342;29;20048;-67
2021/12/02 07:51:16;;;;;;;1.15;0.22;;;;;;;;;;4909321;29;20613;-67
2021/12/02 07:53:44;;;;;;;0.40;0.30;;;;;;;;;;4907868;29;20051;-67
2021/12/02 07:56:11;;;;;;;0.77;0.38;;;;;;;;;;4908210;29;20205;-67
2021/12/02 07:58:40;;;;;;;2.03;0.50;;;;;;;;;;4909015;29;20048;-67
2021/12/02 08:01:07;;;;;;;1.02;0.40;;;;;;;;;;4908429;29;20096;-67
2021/12/02 08:03:34;;;;;;;2.50;0.50;;;;;;;;;;4909373;29;20123;-67
2021/12/02 08:06:00;;;;;;;0.90;0.40;;;;;;;;;;4908790;29;20580;-67
2021/12/02 08:08:26;;;;;;;3.22;0.50;;;;;;;;;;4908960;29;20406;-67
2021/12/02 08:10:52;;;;;;;0.93;0.38;;;;;;;;;;4907899;29;20050;-68
2021/12/02 08:13:19;;;;;;;2.40;0.40;;;;;;;;;;4908997;29;20427;-67
2021/12/02 08:15:46;;;;;;;1.10;0.50;;;;;;;;;;4909150;29;20052;-67
2021/12/02 08:18:12;;;;;;;1.48;0.63;;;;;;;;;;4891618;29;20117;-67
2021/12/02 08:20:38;;;;;;;1.55;0.50;;;;;;;;;;4908875;29;20044;-68
2021/12/02 08:23:05;;;;;;;5.22;0.60;;;;;;;;;;4908803;29;20044;-68
2021/12/02 08:25:32;;;;;;;2.25;0.40;;;;;;;;;;4907983;29;20051;-68
2021/12/02 08:28:00;;;;;;;1.05;0.30;;;;;;;;;;4908572;29;20044;-69
2021/12/02 08:30:27;;;;;;;0.45;0.40;;;;;;;;;;4909790;29;20044;-68
2021/12/02 08:32:55;;;;;;;1.65;0.40;;;;;;;;;;4911963;29;20087;-69
2021/12/02 08:35:22;;;;;;;1.00;0.30;;;;;;;;;;4912156;29;20122;-69
2021/12/02 08:37:51;;;;;;;1.13;0.30;;;;;;;;;;4912736;29;20051;-68
2021/12/02 08:40:20;;;;;;;0.85;0.20;;;;;;;;;;4894794;29;20502;-69
2021/12/02 08:42:47;;;;;;;0.75;0.20;;;;;;;;;;4909458;29;20055;-68
2021/12/02 08:45:13;;;;;;;0.90;0.20;;;;;;;;;;4911896;29;20075;-69
2021/12/02 08:47:44;;;;;;;1.27;0.25;;;;;;;;;;4912116;29;20055;-69
2021/12/02 08:50:11;;;;;;;0.47;0.17;;;;;;;;;;4912563;29;20055;-68
2021/12/02 08:52:37;;;;;;;1.05;0.13;;;;;;;;;;4912274;29;20482;-69
2021/12/02 08:55:04;;;;;;;0.40;0.17;;;;;;;;;;4911578;29;20098;-69
2021/12/02 08:57:30;;;;;;;0.57;0.20;;;;;;;;;;4912422;29;20095;-68
2021/12/02 08:59:56;;;;;;;0.50;0.10;;;;;;;;;;4911762;29;20048;-69
2021/12/02 09:02:22;;;;;;;0.85;0.30;;;;;;;;;;4912535;29;20524;-68
2021/12/02 09:04:49;;;;;;;0.93;0.10;;;;;;;;;;4912421;29;20052;-69
2021/12/02 09:07:16;;;;;;;1.95;0.10;;;;;;;;;;4912217;29;20062;-68
2021/12/02 09:09:42;;;;;;;0.70;0.20;;;;;;;;;;4911949;29;20048;-69
2021/12/02 09:12:09;;;;;;;1.40;0.20;;;;;;;;;;4910790;29;20083;-68
2021/12/02 09:14:36;;;;;;;12.27;1.17;;;;;;;;;;4911483;29;20056;-69
2021/12/02 09:17:03;;;;;;;0.68;0.10;;;;;;;;;;4911564;29;20056;-69
2021/12/02 09:19:29;;;;;;;1.33;0.30;;;;;;;;;;4911835;29;20561;-68
2021/12/02 09:21:55;;;;;;;1.65;0.35;;;;;;;;;;4911604;29;20056;-69
2021/12/02 09:24:21;;;;;;;4.13;0.40;;;;;;;;;;4911892;29;20126;-69
2021/12/02 09:26:49;;;;;;;0.75;0.20;;;;;;;;;;4910784;29;20435;-68
2021/12/02 09:29:16;;;;;;;1.38;0.30;;;;;;;;;;4911411;29;20076;-68
2021/12/02 09:31:42;;;;;;;1.77;0.20;;;;;;;;;;4911274;29;20062;-68
2021/12/02 09:34:08;;;;;;;0.50;0.20;;;;;;;;;;4911180;29;20066;-68
2021/12/02 09:36:36;;;;;;;0.90;0.20;;;;;;;;;;4911410;29;20098;-69
2021/12/02 09:39:03;;;;;;;5.60;0.67;;;;;;;;;;4910612;29;20095;-68
2021/12/02 09:41:29;;;;;;;5.03;0.40;;;;;;;;;;4910527;29;20040;-69
2021/12/02 09:43:56;;;;;;;0.63;0.10;;;;;;;;;;4910931;29;20107;-69
2021/12/02 09:46:22;;;;;;;2.60;0.40;;;;;;;;;;4911254;29;20522;-68
2021/12/02 09:48:48;;;;;;;2.22;0.20;;;;;;;;;;4911119;29;20128;-68
2021/12/02 09:51:21;;;;;;;3.22;0.40;;;;;;;;;;4894140;29;20097;-68
2021/12/02 09:56:19;;;;;;;1.23;0.20;;;;;;;;;;4910286;29;20055;-68
2021/12/02 09:58:45;;;;;;;0.57;0.20;;;;;;;;;;4910966;29;20048;-69
2021/12/02 10:01:14;;;;;;;2.10;0.40;;;;;;;;;;4910898;29;20111;-69
2021/12/02 10:03:43;;;;;;;5.45;1.20;;;;;;;;;;4911137;29;20066;-68
2021/12/02 10:06:14;;;;;;;2.58;1.08;;;;;;;;;;4909718;29;20482;-69
2021/12/02 10:08:51;;;;;;;1.75;0.50;;;;;;;;;;4910824;29;20107;-69
2021/12/02 10:11:33;;;;;;;2.67;0.30;;;;;;;;;;4910571;29;20055;-69
2021/12/02 10:14:21;;;;;;;3.08;0.25;;;;;;;;;;4910042;29;20095;-69
2021/12/02 10:16:50;;;;;;;3.75;0.60;;;;;;;;;;4911080;29;20130;-68
2021/12/02 10:19:20;;;;;;;1.45;0.20;;;;;;;;;;4909716;29;20047;-69
2021/12/02 10:21:56;;;;;;;2.33;0.30;;;;;;;;;;4910976;29;20076;-69
2021/12/02 10:24:25;;;;;;;0.93;0.10;;;;;;;;;;4894016;29;20060;-69
2021/12/02 10:26:54;;;;;;;1.33;0.10;;;;;;;;;;4909513;29;20036;-69
2021/12/02 10:29:23;;;;;;;2.67;0.20;;;;;;;;;;4910603;29;20072;-69
2021/12/02 10:32:04;;;;;;;3.78;0.30;;;;;;;;;;4910628;29;20055;-69
2021/12/02 10:34:30;;;;;;;1.52;0.10;;;;;;;;;;4910680;29;20078;-69
2021/12/02 10:37:08;;;;;;;0.60;0.08;;;;;;;;;;4909669;29;20148;-69
2021/12/02 10:39:34;;;;;;;0.73;0.10;;;;;;;;;;4910139;29;20047;-69
2021/12/02 10:42:02;;;;;;;0.85;0.20;;;;;;;;;;4909742;29;20048;-69
2021/12/02 10:44:33;;;;;;;1.90;0.20;;;;;;;;;;4910205;29;20059;-68
2021/12/02 10:47:08;;;;;;;2.38;0.50;;;;;;;;;;4909920;29;20502;-68
2021/12/02 10:49:39;;;;;;;5.07;0.28;;;;;;;;;;4907492;29;20541;-69
2021/12/02 10:52:06;;;;;;;0.20;0.05;;;;;;;;;;4908979;29;20271;-68
2021/12/02 10:54:35;;;;;;;0.65;0.10;;;;;;;;;;4908231;29;20059;-69
2021/12/02 10:57:08;;;;;;;2.42;0.30;;;;;;;;;;4892004;29;20047;-69
2021/12/02 10:59:42;;;;;;;0.20;0.10;;;;;;;;;;4909552;29;20052;-69
2021/12/02 11:02:09;;;;;;;0.88;0.20;;;;;;;;;;4909708;29;20044;-69
2021/12/02 11:04:38;;;;;;;0.47;0.10;;;;;;;;;;4909258;29;20054;-70
2021/12/02 11:07:09;;;;;;;0.40;0.20;;;;;;;;;;4909525;29;20048;-70
2021/12/02 11:09:36;;;;;;;1.25;0.10;;;;;;;;;;4908991;29;20048;-70
2021/12/02 11:12:10;;;;;;;0.60;0.20;;;;;;;;;;4909308;29;20060;-70
2021/12/02 11:14:37;;;;;;;0.13;0.00;;;;;;;;;;4909427;29;20091;-70
2021/12/02 11:17:08;;;;;;;0.80;0.10;;;;;;;;;;4909548;29;20491;-69
2021/12/02 11:19:34;;;;;;;1.13;0.30;;;;;;;;;;4909485;29;20172;-69
2021/12/02 11:22:09;;;;;;;0.10;0.00;;;;;;;;;;4908971;29;20107;-69
2021/12/02 11:24:36;;;;;;;1.75;0.20;;;;;;;;;;4908995;29;20075;-69
2021/12/02 11:27:13;;;;;;;1.20;0.20;;;;;;;;;;4909397;29;20082;-69
2021/12/02 11:30:03;;;;;;;0.10;0.10;;;;;;;;;;4908774;29;20423;-69
2021/12/02 11:32:31;;;;;;;0.35;0.10;;;;;;;;;;4909081;29;20323;-69
2021/12/02 11:34:59;;;;;;;0.43;0.10;;;;;;;;;;4909396;29;20047;-69
2021/12/02 11:37:26;;;;;;;0.63;0.10;;;;;;;;;;4909267;29;20044;-69
2021/12/02 11:39:54;;;;;;;1.40;0.10;;;;;;;;;;4908492;29;20521;-70
2021/12/02 11:42:20;;;;;;;0.10;0.00;;;;;;;;;;4909698;29;20052;-69
2021/12/02 11:44:47;;;;;;;0.88;0.30;;;;;;;;;;4909448;29;20421;-69
2021/12/02 11:47:13;;;;;;;1.75;0.20;;;;;;;;;;4909521;29;20090;-69
2021/12/02 11:49:39;;;;;;;0.50;0.30;;;;;;;;;;4907794;29;20052;-69
2021/12/02 11:52:05;;;;;;;0.85;0.40;;;;;;;;;;4909446;29;20044;-69
2021/12/02 11:54:33;;;;;;;0.57;0.13;;;;;;;;;;4907923;29;20040;-69
2021/12/02 11:56:59;;;;;;;1.08;0.20;;;;;;;;;;4909453;29;20048;-69
2021/12/02 11:59:26;;;;;;;0.98;0.30;;;;;;;;;;4909115;29;20127;-69
2021/12/02 12:01:56;;;;;;;0.65;0.10;;;;;;;;;;4892233;29;20048;-70
2021/12/02 12:04:22;;;;;;;1.65;0.30;;;;;;;;;;4910346;29;20047;-69
2021/12/02 12:06:53;;;;;;;0.93;0.10;;;;;;;;;;4913411;29;20063;-70
2021/12/02 12:09:21;;;;;;;0.77;0.10;;;;;;;;;;4912790;29;20494;-69
2021/12/02 12:11:49;;;;;;;0.40;0.20;;;;;;;;;;4912780;29;20556;-70
2021/12/02 12:14:18;;;;;;;0.90;0.10;;;;;;;;;;4912890;29;20056;-70
2021/12/02 12:16:48;;;;;;;0.70;0.20;;;;;;;;;;4913421;29;20495;-69
2021/12/02 12:19:14;;;;;;;1.65;0.22;;;;;;;;;;4912709;29;20040;-69
2021/12/02 12:21:41;;;;;;;3.47;0.25;;;;;;;;;;4912741;29;20052;-69
2021/12/02 12:24:08;;;;;;;3.15;0.10;;;;;;;;;;4911056;29;20052;-69
2021/12/02 12:26:37;;;;;;;2.08;0.20;;;;;;;;;;4910184;29;20055;-68
2021/12/02 12:29:07;;;;;;;1.77;0.10;;;;;;;;;;4911683;29;20106;-68
2021/12/02 12:31:42;;;;;;;0.32;0.10;;;;;;;;;;4911553;29;20490;-69
2021/12/02 12:37:27;;;;;;;1.23;0.20;;;;;;;;;;4911130;29;20055;-70
2021/12/02 12:40:08;;;;;;;0.80;0.20;;;;;;;;;;4897093;29;20052;-70
2021/12/02 12:42:36;;;;;;;0.50;0.10;;;;;;;;;;4910761;29;20110;-70
2021/12/02 12:45:03;;;;;;;3.70;0.50;;;;;;;;;;4911269;29;20048;-69
2021/12/02 12:47:47;;;;;;;1.25;0.20;;;;;;;;;;4911032;29;20123;-70
2021/12/02 12:50:25;;;;;;;0.70;0.20;;;;;;;;;;4911658;29;20036;-68
2021/12/02 12:52:54;;;;;;;1.85;0.32;;;;;;;;;;4911866;29;20055;-67
2021/12/02 12:55:20;;;;;;;;;;;;;;;;;;4911910;29;20044;-69
2021/12/02 12:58:05;;;;;;;1.58;0.32;;;;;;;;;;4910996;29;20021;-69
2021/12/02 13:00:38;;;;;;;1.17;0.28;;;;;;;;;;4911729;29;20048;-69
2021/12/02 13:03:09;;;;;;;4.50;0.45;;;;;;;;;;4911168;29;20044;-69
2021/12/02 13:05:51;;;;;;;4.38;0.30;;;;;;;;;;4911423;29;20052;-69
2021/12/02 13:08:19;;;;;;;2.28;0.40;;;;;;;;;;4908992;29;20384;-69
2021/12/02 13:10:52;;;;;;;1.75;0.40;;;;;;;;;;4910692;29;20441;-69
2021/12/02 13:13:24;;;;;;;2.80;0.75;;;;;;;;;;4894472;29;20084;-69
2021/12/02 13:15:50;;;;;;;1.77;0.40;;;;;;;;;;4910809;29;20071;-69
2021/12/02 13:18:33;;;;;;;3.75;0.40;;;;;;;;;;4911360;29;20044;-67
2021/12/02 13:21:18;;;;;;;2.38;1.00;;;;;;;;;;4911113;29;20076;-69
2021/12/02 13:23:55;;;;;;;1.23;0.20;;;;;;;;;;4910897;29;20055;-69
2021/12/02 13:26:22;;;;;;;5.50;0.38;;;;;;;;;;4900723;29;20067;-69
2021/12/02 13:28:49;;;;;;;0.93;0.20;;;;;;;;;;4910796;29;20092;-69
2021/12/02 13:31:16;;;;;;;3.72;0.40;;;;;;;;;;4910478;29;20288;-69
2021/12/02 13:33:42;;;;;;;2.17;0.43;;;;;;;;;;4910739;29;20060;-68
2021/12/02 13:36:10;;;;;;;4.55;0.68;;;;;;;;;;4910434;29;20139;-69
2021/12/02 13:38:37;;;;;;;2.10;0.30;;;;;;;;;;4908506;29;20610;-68
2021/12/02 13:41:10;;;;;;;1.75;0.50;;;;;;;;;;4901552;29;20036;-69
2021/12/02 13:43:51;;;;;;;0.85;0.20;;;;;;;;;;4891167;29;20048;-69
2021/12/02 13:46:17;;;;;;;0.98;0.28;;;;;;;;;;4911707;29;20063;-69
2021/12/02 13:48:56;;;;;;;1.33;0.30;;;;;;;;;;4911735;29;20044;-69
2021/12/02 13:54:19;;;;;;;0.50;0.30;;;;;;;;;;4910115;29;20044;-69
2021/12/02 13:56:46;;;;;;;0.40;0.30;;;;;;;;;;4911248;29;20044;-69
2021/12/02 13:59:15;;;;;;;1.88;0.30;;;;;;;;;;4910752;29;20040;-69
2021/12/02 14:01:49;;;;;;;2.20;0.30;;;;;;;;;;4910344;29;20055;-69
2021/12/02 14:04:15;;;;;;;1.15;0.20;;;;;;;;;;4910371;29;20044;-69
2021/12/02 14:06:42;;;;;;;0.88;0.30;;;;;;;;;;4910606;29;20052;-69
2021/12/02 14:09:17;;;;;;;0.80;0.20;;;;;;;;;;4909163;29;20156;-69
2021/12/02 14:11:44;;;;;;;1.85;0.32;;;;;;;;;;4909318;29;20044;-69
2021/12/02 14:14:16;;;;;;;1.85;0.63;;;;;;;;;;4910391;29;20349;-69
2021/12/02 14:16:43;;;;;;;2.53;0.40;;;;;;;;;;4910567;29;20439;-68
2021/12/02 14:19:10;;;;;;;1.13;0.30;;;;;;;;;;4909283;29;20048;-71
2021/12/02 14:21:36;;;;;;;1.30;0.30;;;;;;;;;;4920677;29;20139;-69
2021/12/02 14:24:03;;;;;;;0.32;0.30;;;;;;;;;;4909362;29;20102;-69
2021/12/02 14:26:30;;;;;;;2.05;0.35;;;;;;;;;;4910294;29;20056;-69
2021/12/02 14:28:58;;;;;;;0.60;0.40;;;;;;;;;;4910470;29;20087;-68
2021/12/02 14:31:29;;;;;;;1.42;0.32;;;;;;;;;;4910411;29;20119;-68
2021/12/02 14:33:56;;;;;;;1.42;0.30;;;;;;;;;;4910286;29;20048;-69
2021/12/02 14:36:25;;;;;;;1.13;0.30;;;;;;;;;;4910320;29;20127;-69
2021/12/02 14:38:51;;;;;;;;;;;;;;;;;;4908966;29;20082;-69
2021/12/02 14:41:19;;;;;;;1.42;0.60;;;;;;;;;;4910765;29;20382;-69
2021/12/02 14:43:47;;;;;;;1.83;0.32;;;;;;;;;;4910395;29;20032;-68
2021/12/02 14:46:15;;;;;;;1.97;0.40;;;;;;;;;;4909684;29;20086;-68
2021/12/02 14:48:41;;;;;;;1.25;0.40;;;;;;;;;;4910184;29;20362;-69
2021/12/02 14:51:09;;;;;;;1.42;0.32;;;;;;;;;;4909534;29;20179;-69
2021/12/02 14:53:37;;;;;;;1.17;0.50;;;;;;;;;;4909911;29;20072;-69
2021/12/02 14:56:19;;;;;;;1.83;0.40;;;;;;;;;;4908913;29;20055;-68
2021/12/02 14:59:05;;;;;;;3.05;0.40;;;;;;;;;;4907535;29;20738;-68
2021/12/02 15:01:31;;;;;;;0.80;0.40;;;;;;;;;;4906848;29;20047;-69
2021/12/02 15:03:57;;;;;;;1.80;0.50;;;;;;;;;;4909533;29;20044;-69
2021/12/02 15:06:35;;;;;;;0.85;0.50;;;;;;;;;;4908754;29;20079;-69
2021/12/02 15:09:01;;;;;;;1.70;0.73;;;;;;;;;;4907191;29;20048;-68
2021/12/02 15:11:32;;;;;;;1.15;0.43;;;;;;;;;;4908751;29;20083;-69
2021/12/02 15:13:58;;;;;;;0.82;0.50;;;;;;;;;;4908247;29;20044;-68